createdAt,value
2023-10-28T00:02:31.553Z,-78
2023-10-28T00:05:37.411Z,-78
2023-10-28T00:08:46.930Z,-78
2023-10-28T00:11:52.691Z,-78
2023-10-28T00:14:59.530Z,-79
2023-10-28T00:18:06.175Z,-77
2023-10-28T00:21:13.103Z,-78
2023-10-28T00:24:21.506Z,-76
2023-10-28T00:27:28.126Z,-77
2023-10-28T00:30:35.192Z,-77
2023-10-28T00:33:41.883Z,-77
2023-10-28T00:36:47.944Z,-77
2023-10-28T00:39:57.477Z,-78
2023-10-28T00:43:03.914Z,-78
2023-10-28T00:46:11.344Z,-78
2023-10-28T00:49:17.343Z,-78
2023-10-28T00:52:25.182Z,-78
2023-10-28T00:55:34.893Z,-78
2023-10-28T00:58:44.115Z,-79
2023-10-28T01:01:50.735Z,-78
2023-10-28T01:04:58.187Z,-78
2023-10-28T01:08:04.067Z,-78
2023-10-28T01:11:15.645Z,-79
2023-10-28T01:14:22.260Z,-78
2023-10-28T01:17:29.422Z,-79
2023-10-28T01:20:37.371Z,-79
2023-10-28T01:23:46.204Z,-78
2023-10-28T01:26:52.810Z,-78
2023-10-28T01:29:58.640Z,-78
2023-10-28T01:33:05.155Z,-77
2023-10-28T01:36:11.892Z,-78
2023-10-28T01:39:21.417Z,-78
2023-10-28T01:42:27.341Z,-77
2023-10-28T01:45:34.096Z,-78
2023-10-28T01:48:40.039Z,-78
2023-10-28T01:51:46.617Z,-78
2023-10-28T01:54:55.506Z,-78
2023-10-28T01:58:02.817Z,-77
2023-10-28T02:01:08.753Z,-78
2023-10-28T02:04:16.525Z,-78
2023-10-28T02:07:22.838Z,-78
2023-10-28T02:10:32.349Z,-78
2023-10-28T02:13:38.182Z,-78
2023-10-28T02:16:44.842Z,-78
2023-10-28T02:19:51.153Z,-78
2023-10-28T02:22:57.962Z,-78
2023-10-28T02:26:06.753Z,-79
2023-10-28T02:29:13.867Z,-78
2023-10-28T02:32:20.004Z,-78
2023-10-28T02:35:28.003Z,-78
2023-10-28T02:38:33.927Z,-78
2023-10-28T02:41:43.358Z,-78
2023-10-28T02:44:49.127Z,-78
2023-10-28T02:47:55.742Z,-78
2023-10-28T02:51:08.351Z,-77
2023-10-28T02:54:15.677Z,-78
2023-10-28T02:57:24.762Z,-78
2023-10-28T03:00:31.645Z,-79
2023-10-28T03:03:38.092Z,-77
2023-10-28T03:06:44.848Z,-78
2023-10-28T03:09:50.841Z,-78
2023-10-28T03:13:00.180Z,-78
2023-10-28T03:16:06.064Z,-78
2023-10-28T03:19:13.051Z,-78
2023-10-28T03:22:18.816Z,-77
2023-10-28T03:25:26.282Z,-78
2023-10-28T03:28:34.671Z,-78
2023-10-28T03:31:41.348Z,-78
2023-10-28T03:34:47.331Z,-78
2023-10-28T03:37:54.094Z,-78
2023-10-28T03:41:00.231Z,-77
2023-10-28T03:44:09.963Z,-79
2023-10-28T03:47:15.892Z,-77
2023-10-28T03:50:22.465Z,-78
2023-10-28T03:53:28.511Z,-78
2023-10-28T03:56:35.549Z,-78
2023-10-28T03:59:44.119Z,-78
2023-10-28T04:02:51.404Z,-78
2023-10-28T04:05:57.670Z,-79
2023-10-28T04:09:05.033Z,-78
2023-10-28T04:12:11.491Z,-78
2023-10-28T04:15:20.730Z,-78
2023-10-28T04:18:26.430Z,-77
2023-10-28T04:21:33.342Z,-78
2023-10-28T04:24:39.288Z,-78
2023-10-28T04:27:45.956Z,-78
2023-10-28T04:31:02.747Z,-78
2023-10-28T04:34:09.394Z,-78
2023-10-28T04:37:15.780Z,-78
2023-10-28T04:40:22.918Z,-78
2023-10-28T04:43:28.917Z,-78
2023-10-28T04:46:38.132Z,-78
2023-10-28T04:49:44.221Z,-78
2023-10-28T04:52:51.034Z,-79
2023-10-28T04:55:58.044Z,-78
2023-10-28T04:59:04.731Z,-78
2023-10-28T05:02:13.649Z,-79
2023-10-28T05:05:20.409Z,-78
2023-10-28T05:08:26.208Z,-79
2023-10-28T05:11:32.993Z,-78
2023-10-28T05:14:38.773Z,-78
2023-10-28T05:17:48.407Z,-79
2023-10-28T05:20:54.597Z,-77
2023-10-28T05:24:01.247Z,-79
2023-10-28T05:27:07.973Z,-78
2023-10-28T05:30:16.551Z,-78
2023-10-28T05:33:25.079Z,-78
2023-10-28T05:36:31.724Z,-78
2023-10-28T05:39:40.829Z,-79
2023-10-28T05:42:47.444Z,-78
2023-10-28T05:45:53.367Z,-78
2023-10-28T05:49:02.929Z,-78
2023-10-28T05:52:10.871Z,-78
2023-10-28T05:55:17.780Z,-78
2023-10-28T05:58:24.019Z,-78
2023-10-28T06:01:30.779Z,-78
2023-10-28T06:04:39.226Z,-79
2023-10-28T06:07:49.207Z,-78
2023-10-28T06:10:55.300Z,-78
2023-10-28T06:14:02.964Z,-78
2023-10-28T06:17:08.982Z,-77
2023-10-28T06:20:18.551Z,-88
2023-10-28T06:23:24.765Z,-86
2023-10-28T06:26:31.326Z,-85
2023-10-28T06:29:37.481Z,-84
2023-10-28T06:32:45.204Z,-85
2023-10-28T06:35:53.636Z,-87
2023-10-28T06:39:00.288Z,-86
2023-10-28T06:42:06.435Z,-86
2023-10-28T06:45:15.985Z,-86
2023-10-28T06:48:21.817Z,-85
2023-10-28T06:51:31.242Z,-86
2023-10-28T06:54:38.837Z,-82
2023-10-28T06:57:45.709Z,-84
2023-10-28T07:00:51.522Z,-85
2023-10-28T07:03:58.558Z,-85
2023-10-28T07:07:07.744Z,-84
2023-10-28T07:10:15.955Z,-87
2023-10-28T07:13:22.138Z,-83
2023-10-28T07:16:29.156Z,-86
2023-10-28T07:19:36.259Z,-85
2023-10-28T07:22:45.630Z,-87
2023-10-28T07:25:51.611Z,-82
2023-10-28T07:28:58.524Z,-88
2023-10-28T07:32:04.431Z,-86
2023-10-28T07:35:12.600Z,-88
2023-10-28T07:38:21.433Z,-87
2023-10-28T07:41:28.037Z,-87
2023-10-28T07:44:33.920Z,-84
2023-10-28T07:47:42.853Z,-86
2023-10-28T07:50:50.097Z,-84
2023-10-28T07:53:59.709Z,-85
2023-10-28T07:57:05.850Z,-87
2023-10-28T08:00:14.639Z,-85
2023-10-28T08:03:21.727Z,-86
2023-10-28T08:06:35.509Z,-84
2023-10-28T08:09:46.566Z,-87
2023-10-28T08:12:55.006Z,-85
2023-10-28T08:16:00.743Z,-85
2023-10-28T08:19:09.526Z,-87
2023-10-28T08:22:16.885Z,-86
2023-10-28T08:25:26.171Z,-86
2023-10-28T08:28:32.021Z,-86
2023-10-28T08:31:38.990Z,-87
2023-10-28T08:34:44.850Z,-85
2023-10-28T08:37:51.840Z,-86
2023-10-28T08:41:04.297Z,-87
2023-10-28T08:44:13.718Z,-86
2023-10-28T08:47:26.144Z,-86
2023-10-28T08:50:33.611Z,-86
2023-10-28T08:53:41.467Z,-85
2023-10-28T08:56:52.737Z,-80
2023-10-28T08:59:58.545Z,-80
2023-10-28T09:03:07.896Z,-80
2023-10-28T09:06:13.967Z,-80
2023-10-28T09:09:22.645Z,-80
2023-10-28T09:12:31.313Z,-80
2023-10-28T09:15:38.987Z,-80
2023-10-28T09:18:51.955Z,-79
2023-10-28T09:22:00.168Z,-80
2023-10-28T09:25:08.442Z,-80
2023-10-28T09:28:23.761Z,-81
2023-10-28T09:31:30.164Z,-80
2023-10-28T09:34:42.170Z,-80
2023-10-28T09:37:47.986Z,-80
2023-10-28T09:40:56.164Z,-80
2023-10-28T09:44:05.580Z,-80
2023-10-28T09:47:12.274Z,-80
2023-10-28T09:50:24.547Z,-80
2023-10-28T09:53:37.742Z,-80
2023-10-28T09:56:53.421Z,-80
2023-10-28T10:00:12.461Z,-79
2023-10-28T10:03:47.713Z,-80
2023-10-28T10:06:55.394Z,-80
2023-10-28T10:10:15.011Z,-79
2023-10-28T10:13:23.412Z,-80
2023-10-28T10:16:50.514Z,-80
2023-10-28T10:19:57.201Z,-80
2023-10-28T10:23:04.393Z,-79
2023-10-28T10:26:11.530Z,-80
2023-10-28T10:29:18.130Z,-81
2023-10-28T10:32:30.834Z,-81
2023-10-28T10:35:38.645Z,-79
2023-10-28T10:38:46.943Z,-78
2023-10-28T10:42:00.509Z,-79
2023-10-28T10:45:09.979Z,-79
2023-10-28T10:48:19.046Z,-79
2023-10-28T10:51:28.086Z,-80
2023-10-28T10:54:35.805Z,-79
2023-10-28T10:57:42.870Z,-79
2023-10-28T11:00:56.717Z,-79
2023-10-28T11:04:06.519Z,-79
2023-10-28T11:07:12.695Z,-78
2023-10-28T11:10:20.571Z,-79
2023-10-28T11:13:26.728Z,-79
2023-10-28T11:16:36.917Z,-80
2023-10-28T11:19:52.559Z,-80
2023-10-28T11:22:59.933Z,-79
2023-10-28T11:26:08.526Z,-79
2023-10-28T11:29:19.547Z,-79
2023-10-28T11:32:25.426Z,-79
2023-10-28T11:35:38.547Z,-78
2023-10-28T11:38:45.334Z,-78
2023-10-28T11:41:55.674Z,-78
2023-10-28T11:45:01.452Z,-78
2023-10-28T11:48:10.060Z,-79
2023-10-28T11:51:19.598Z,-79
2023-10-28T11:54:26.367Z,-79
2023-10-28T11:57:32.338Z,-78
2023-10-28T12:00:39.451Z,-78
2023-10-28T12:03:47.091Z,-78
2023-10-28T12:07:03.315Z,-79
2023-10-28T12:10:15.713Z,-79
2023-10-28T12:13:25.472Z,-78
2023-10-28T12:16:33.694Z,-79
2023-10-28T12:19:41.430Z,-78
2023-10-28T12:22:56.108Z,-79
2023-10-28T12:26:08.203Z,-79
2023-10-28T12:29:17.118Z,-79
2023-10-28T12:32:26.246Z,-79
2023-10-28T12:35:35.496Z,-79
2023-10-28T12:38:48.665Z,-79
2023-10-28T12:42:04.669Z,-78
2023-10-28T12:45:13.260Z,-79
2023-10-28T12:48:21.634Z,-79
2023-10-28T12:51:28.276Z,-78
2023-10-28T12:54:36.780Z,-79
2023-10-28T12:57:47.796Z,-79
2023-10-28T13:00:57.576Z,-78
2023-10-28T13:04:05.756Z,-79
2023-10-28T13:07:14.456Z,-78
2023-10-28T13:10:25.810Z,-78
2023-10-28T13:13:31.677Z,-79
2023-10-28T13:16:41.616Z,-79
2023-10-28T13:19:51.150Z,-79
2023-10-28T13:23:02.278Z,-79
2023-10-28T13:26:15.226Z,-79
2023-10-28T13:29:23.596Z,-79
2023-10-28T13:32:40.713Z,-79
2023-10-28T13:35:57.327Z,-79
2023-10-28T13:39:04.106Z,-79
2023-10-28T13:42:13.744Z,-79
2023-10-28T13:45:20.305Z,-78
2023-10-28T13:48:31.684Z,-79
2023-10-28T13:51:41.626Z,-80
2023-10-28T13:54:49.463Z,-78
2023-10-28T13:57:59.353Z,-78
2023-10-28T14:01:12.772Z,-79
2023-10-28T14:04:19.737Z,-79
2023-10-28T14:07:26.452Z,-80
2023-10-28T14:10:32.266Z,-79
2023-10-28T14:13:43.061Z,-79
2023-10-28T14:16:48.974Z,-78
2023-10-28T14:19:55.781Z,-78
2023-10-28T14:23:02.589Z,-79
2023-10-28T14:26:09.305Z,-79
2023-10-28T14:29:17.818Z,-79
2023-10-28T14:32:24.485Z,-79
2023-10-28T14:35:30.617Z,-79
2023-10-28T14:38:37.532Z,-78
2023-10-28T14:41:44.240Z,-79
2023-10-28T14:44:53.833Z,-79
2023-10-28T14:48:01.108Z,-79
2023-10-28T14:51:09.519Z,-79
2023-10-28T14:54:16.248Z,-79
2023-10-28T14:57:22.935Z,-79
2023-10-28T15:00:31.617Z,-79
2023-10-28T15:03:38.455Z,-79
2023-10-28T15:06:44.485Z,-78
2023-10-28T15:09:51.234Z,-79
2023-10-28T15:12:57.333Z,-79
2023-10-28T15:16:07.089Z,-79
2023-10-28T15:19:13.523Z,-79
2023-10-28T15:22:20.229Z,-78
2023-10-28T15:25:26.404Z,-79
2023-10-28T15:28:33.251Z,-79
2023-10-28T15:31:41.792Z,-79
2023-10-28T15:34:52.089Z,-79
2023-10-28T15:37:58.016Z,-79
2023-10-28T15:41:07.798Z,-79
2023-10-28T15:44:13.918Z,-78
2023-10-28T15:47:23.693Z,-79
2023-10-28T15:50:29.607Z,-78
2023-10-28T15:53:39.604Z,-79
2023-10-28T15:56:48.545Z,-78
2023-10-28T15:59:55.171Z,-79
2023-10-28T16:03:04.002Z,-78
2023-10-28T16:06:13.729Z,-79
2023-10-28T16:09:19.578Z,-79
2023-10-28T16:12:31.477Z,-79
2023-10-28T16:15:40.835Z,-78
2023-10-28T16:18:59.400Z,-79
2023-10-28T16:22:10.187Z,-78
2023-10-28T16:25:21.747Z,-79
2023-10-28T16:28:28.286Z,-78
2023-10-28T16:31:35.777Z,-91
2023-10-28T16:34:47.312Z,-91
2023-10-28T16:37:55.952Z,-91
2023-10-28T16:41:04.274Z,-91
2023-10-28T16:44:16.151Z,-90
2023-10-28T16:47:23.748Z,-91
2023-10-28T16:50:39.016Z,-91
2023-10-28T16:53:46.381Z,-92
2023-10-28T16:56:59.207Z,-91
2023-10-28T17:00:05.162Z,-91
2023-10-28T17:03:12.532Z,-90
2023-10-28T17:06:23.520Z,-90
2023-10-28T17:09:33.800Z,-90
2023-10-28T17:12:39.763Z,-91
2023-10-28T17:15:51.378Z,-89
2023-10-28T17:19:03.906Z,-89
2023-10-28T17:22:13.496Z,-91
2023-10-28T17:25:21.995Z,-91
2023-10-28T17:28:29.377Z,-92
2023-10-28T17:31:38.213Z,-91
2023-10-28T17:34:50.160Z,-93
2023-10-28T17:38:00.953Z,-89
2023-10-28T17:41:16.033Z,-90
2023-10-28T17:44:22.175Z,-90
2023-10-28T17:47:31.114Z,-90
2023-10-28T17:50:37.291Z,-90
2023-10-28T17:53:51.105Z,-91
2023-10-28T17:56:59.397Z,-91
2023-10-28T18:00:11.839Z,-90
2023-10-28T18:03:19.110Z,-90
2023-10-28T18:06:27.868Z,-89
2023-10-28T18:09:40.593Z,-91
2023-10-28T18:12:53.629Z,-90
2023-10-28T18:16:03.228Z,-90
2023-10-28T18:19:16.917Z,-90
2023-10-28T18:22:26.075Z,-90
2023-10-28T18:25:37.477Z,-90
2023-10-28T18:28:46.568Z,-90
2023-10-28T18:31:53.436Z,-90
2023-10-28T18:35:06.982Z,-89
2023-10-28T18:38:16.199Z,-90
2023-10-28T18:41:27.576Z,-91
2023-10-28T18:44:37.108Z,-90
2023-10-28T18:48:00.462Z,-91
2023-10-28T18:51:18.682Z,-91
2023-10-28T18:54:37.755Z,-92
2023-10-28T18:57:58.915Z,-91
2023-10-28T19:01:05.070Z,-91
2023-10-28T19:04:12.321Z,-92
2023-10-28T19:07:18.807Z,-90
2023-10-28T19:10:25.724Z,-91
2023-10-28T19:13:38.854Z,-90
2023-10-28T19:16:49.198Z,-90
2023-10-28T19:20:01.110Z,-91
2023-10-28T19:23:07.944Z,-90
2023-10-28T19:26:13.870Z,-90
2023-10-28T19:29:25.165Z,-91
2023-10-28T19:32:34.126Z,-89
2023-10-28T19:35:41.237Z,-90
2023-10-28T19:38:47.494Z,-91
2023-10-28T19:41:54.547Z,-90
2023-10-28T19:45:03.281Z,-91
2023-10-28T19:48:11.424Z,-91
2023-10-28T19:51:19.231Z,-91
2023-10-28T19:54:28.047Z,-91
2023-10-28T19:57:34.740Z,-91
2023-10-28T20:00:43.973Z,-91
2023-10-28T20:03:51.694Z,-90
2023-10-28T20:06:58.550Z,-92
2023-10-28T20:10:08.538Z,-90
2023-10-28T20:13:15.928Z,-89
2023-10-28T20:16:24.488Z,-90
2023-10-28T20:19:31.977Z,-91
2023-10-28T20:22:37.902Z,-90
2023-10-28T20:25:44.823Z,-91
2023-10-28T20:28:50.785Z,-91
2023-10-28T20:32:02.517Z,-91
2023-10-28T20:35:10.207Z,-89
2023-10-28T20:38:16.861Z,-89
2023-10-28T20:41:25.515Z,-89
2023-10-28T20:44:33.001Z,-91
2023-10-28T20:47:42.031Z,-90
2023-10-28T20:50:50.693Z,-91
2023-10-28T20:53:56.595Z,-92
2023-10-28T20:57:03.741Z,-90
2023-10-28T21:00:12.015Z,-89
2023-10-28T21:03:21.392Z,-89
2023-10-28T21:06:27.535Z,-90
2023-10-28T21:09:35.136Z,-91
2023-10-28T21:12:41.104Z,-89
2023-10-28T21:15:47.697Z,-91
2023-10-28T21:18:56.245Z,-91
2023-10-28T21:22:03.471Z,-91
2023-10-28T21:25:09.995Z,-91
2023-10-28T21:28:16.707Z,-91
2023-10-28T21:31:22.637Z,-91
2023-10-28T21:34:31.882Z,-91
2023-10-28T21:37:40.726Z,-91
2023-10-28T21:40:47.351Z,-90
2023-10-28T21:43:53.331Z,-90
2023-10-28T21:46:59.906Z,-90
2023-10-28T21:50:12.333Z,-90
2023-10-28T21:53:18.941Z,-90
2023-10-28T21:56:25.652Z,-91
2023-10-28T21:59:37.057Z,-91
2023-10-28T22:02:44.972Z,-91
2023-10-28T22:05:54.324Z,-90
2023-10-28T22:09:00.091Z,-91
2023-10-28T22:12:07.881Z,-89
2023-10-28T22:15:13.988Z,-88
2023-10-28T22:18:21.255Z,-89
2023-10-28T22:21:29.957Z,-89
2023-10-28T22:24:36.646Z,-89
2023-10-28T22:27:42.525Z,-90
2023-10-28T22:30:49.899Z,-88
2023-10-28T22:33:56.365Z,-90
2023-10-28T22:37:07.034Z,-90
2023-10-28T22:40:15.151Z,-89
2023-10-28T22:43:21.910Z,-88
2023-10-28T22:46:30.660Z,-90
2023-10-28T22:49:38.250Z,-89
2023-10-28T22:52:46.853Z,-88
2023-10-28T22:55:56.284Z,-90
2023-10-28T22:59:02.282Z,-89
2023-10-28T23:02:09.978Z,-94
2023-10-28T23:05:16.030Z,-94
2023-10-28T23:08:25.209Z,-93
2023-10-28T23:11:31.736Z,-94
2023-10-28T23:14:38.466Z,-90
2023-10-28T23:17:44.711Z,-92
2023-10-28T23:20:52.225Z,-92
2023-10-28T23:24:00.907Z,-93
2023-10-28T23:27:11.057Z,-92
2023-10-28T23:30:17.559Z,-90
2023-10-28T23:33:24.262Z,-92
2023-10-28T23:36:30.169Z,-94
2023-10-28T23:39:39.333Z,-92
2023-10-28T23:42:46.115Z,-92
2023-10-28T23:45:52.642Z,-93
2023-10-28T23:49:00.251Z,-92
2023-10-28T23:52:07.083Z,-93
2023-10-28T23:55:15.946Z,-92
2023-10-28T23:58:23.012Z,-92
